Playa de Rincon, Puerto Rico
Current Conditions -  °F | °C
As of 8:50 AM on Monday 20 Oct 2014 (Local Time) from TJBQ Reporting Station
Scattered Clouds Scattered Clouds  
Wind Chill: 84°   Ceiling: Unl
Heat Index: 91°   Visibility: 10mi
Dew Point: 73°   Wind: 9mph
Humidity: 70%   Direction: 70°ENE
Pressure: 30"   Gusts: NA
Location:  18.34°N, 67.25°W
Report Text: TJBQ 201250Z 07008KT 10SM SCT019 29/23 A3000 RMK RWY 8 ATIS E
Loading
Personal Weather Stations






























Interactive Weather Map
Tropical Storm Tracking
New forecast layout! Learn more

10-Day Weather Forecast

Advertisements
Track Severe Weather on mobile